PWSweather.com
Personal Weather Stations
Station Observations

Acton, CA 93510

Lat: 34.47703, Lon: -118.17483

Elevation: 2900

Station Type: Davis Vantage Pro 2

http://www.actonastro.com/weather/current.php

Latest ConditionsUpdated 8:35:42 PM PDT Friday, Jul 20, 2018
Currently Today's Max Today's Min Today's Average
Temperature 76.4°F24.7°C 91.1°F32.8°C 66.1°F18.9°C 79.3°F26.3°C
Dew Point 58.0°F14.4°C 64.5°F18.1°C 58.0°F14.4°C 61.7°F16.5°C
Winds 1.0 mph W1.6 kmh W 15.0 mph -24.1 kmh - - 3.4 mph 5.5 kmh
Wind Gusts 12.0 mph19.3 kmh 19.0 mph30.6 kmh - -
Humidity 53% 81% 40% 57%
Pressure 29.69 in1005.4 mb 29.72 in1006.4 mb 29.65 in1004.1 mb -
Hour Temp Dew Point Humidity Winds Wind Gusts Pressure Precip Precip Rate Daily Precip Total
08:35 PM 76.4°F24.7°C 58.0°F14.4°C 53% 1.0 mph W1.6 kmh W 12.0 mph19.3 kmh 29.69 in1005.4 mb 0.00 in0.0 mm 0.00 in0.0 mm 0.00 in0.0 mm
08:30 PM 76.5°F24.7°C 58.1°F14.5°C 53% 4.0 mph SW6.4 kmh SW 12.0 mph19.3 kmh 29.69 in1005.4 mb 0.00 in0.0 mm 0.00 in0.0 mm 0.00 in0.0 mm
08:25 PM 76.7°F24.8°C 58.3°F14.6°C 53% 3.0 mph WNW4.8 kmh WNW 7.0 mph11.3 kmh 29.69 in1005.4 mb 0.00 in0.0 mm 0.00 in0.0 mm 0.00 in0.0 mm
08:20 PM 76.9°F24.9°C 58.4°F14.7°C 53% 2.0 mph SW3.2 kmh SW 7.0 mph11.3 kmh 29.69 in1005.4 mb 0.00 in0.0 mm 0.00 in0.0 mm 0.00 in0.0 mm
08:15 PM 77.3°F25.2°C 58.8°F14.9°C 53% 3.0 mph SW4.8 kmh SW 9.0 mph14.5 kmh 29.69 in1005.4 mb 0.00 in0.0 mm 0.00 in0.0 mm 0.00 in0.0 mm
08:10 PM 77.8°F25.4°C 58.7°F14.8°C 52% 4.0 mph W6.4 kmh W 9.0 mph14.5 kmh 29.68 in1005.1 mb 0.00 in0.0 mm 0.00 in0.0 mm 0.00 in0.0 mm
08:05 PM 78.1°F25.6°C 58.5°F14.7°C 51% 5.0 mph SW8.0 kmh SW 9.0 mph14.5 kmh 29.68 in1005.1 mb 0.00 in0.0 mm 0.00 in0.0 mm 0.00 in0.0 mm
08:00 PM 78.4°F25.8°C 58.2°F14.6°C 50% 5.0 mph WSW8.0 kmh WSW 9.0 mph14.5 kmh 29.68 in1005.1 mb 0.00 in0.0 mm 0.00 in0.0 mm 0.00 in0.0 mm
07:55 PM 78.7°F25.9°C 58.5°F14.7°C 50% 2.0 mph WSW3.2 kmh WSW 7.0 mph11.3 kmh 29.68 in1005.1 mb 0.00 in0.0 mm 0.00 in0.0 mm 0.00 in0.0 mm
07:50 PM 79.1°F26.2°C 58.8°F14.9°C 50% 2.0 mph NW3.2 kmh NW 7.0 mph11.3 kmh 29.68 in1005.1 mb 0.00 in0.0 mm 0.00 in0.0 mm 0.00 in0.0 mm
07:45 PM 79.6°F26.4°C 58.7°F14.8°C 49% 7.0 mph WSW11.3 kmh WSW 14.0 mph22.5 kmh 29.68 in1005.1 mb 0.00 in0.0 mm 0.00 in0.0 mm 0.00 in0.0 mm
07:40 PM 80.0°F26.7°C 59.1°F15.1°C 49% 2.0 mph WNW3.2 kmh WNW 14.0 mph22.5 kmh 29.67 in1004.7 mb 0.00 in0.0 mm 0.00 in0.0 mm 0.00 in0.0 mm
07:35 PM 80.3°F26.8°C 59.4°F15.2°C 49% 8.0 mph WNW12.9 kmh WNW 14.0 mph22.5 kmh 29.67 in1004.7 mb 0.00 in0.0 mm 0.00 in0.0 mm 0.00 in0.0 mm
07:30 PM 80.6°F27.0°C 59.1°F15.1°C 48% 4.0 mph NW6.4 kmh NW 14.0 mph22.5 kmh 29.67 in1004.7 mb 0.00 in0.0 mm 0.00 in0.0 mm 0.00 in0.0 mm
07:25 PM 80.7°F27.1°C 59.2°F15.1°C 48% 5.0 mph SW8.0 kmh SW 14.0 mph22.5 kmh 29.66 in1004.4 mb 0.00 in0.0 mm 0.00 in0.0 mm 0.00 in0.0 mm
07:20 PM 81.0°F27.2°C 59.4°F15.2°C 48% 5.0 mph WSW8.0 kmh WSW 14.0 mph22.5 kmh 29.66 in1004.4 mb 0.00 in0.0 mm 0.00 in0.0 mm 0.00 in0.0 mm
07:15 PM 81.2°F27.3°C 59.6°F15.3°C 48% 3.0 mph WSW4.8 kmh WSW 14.0 mph22.5 kmh 29.66 in1004.4 mb 0.00 in0.0 mm 0.00 in0.0 mm 0.00 in0.0 mm
07:10 PM 81.4°F27.4°C 59.8°F15.4°C 48% 3.0 mph W4.8 kmh W 12.0 mph19.3 kmh 29.66 in1004.4 mb 0.00 in0.0 mm 0.00 in0.0 mm 0.00 in0.0 mm
07:05 PM 81.8°F27.7°C 60.2°F15.7°C 48% 5.0 mph WSW8.0 kmh WSW 12.0 mph19.3 kmh 29.66 in1004.4 mb 0.00 in0.0 mm 0.00 in0.0 mm 0.00 in0.0 mm
07:00 PM 82.1°F27.8°C 61.0°F16.1°C 49% 6.0 mph W9.7 kmh W 12.0 mph19.3 kmh 29.66 in1004.4 mb 0.00 in0.0 mm 0.00 in0.0 mm 0.00 in0.0 mm
06:55 PM 82.6°F28.1°C 60.9°F16.1°C 48% 3.0 mph W4.8 kmh W 15.0 mph24.1 kmh 29.66 in1004.4 mb 0.00 in0.0 mm 0.00 in0.0 mm 0.00 in0.0 mm
06:50 PM 82.9°F28.3°C 60.6°F15.9°C 47% 12.0 mph WSW19.3 kmh WSW 15.0 mph24.1 kmh 29.66 in1004.4 mb 0.00 in0.0 mm 0.00 in0.0 mm 0.00 in0.0 mm
06:45 PM 83.1°F28.4°C 60.1°F15.6°C 46% 3.0 mph W4.8 kmh W 15.0 mph24.1 kmh 29.66 in1004.4 mb 0.00 in0.0 mm 0.00 in0.0 mm 0.00 in0.0 mm
06:40 PM 83.5°F28.6°C 60.5°F15.8°C 46% 4.0 mph WSW6.4 kmh WSW 15.0 mph24.1 kmh 29.66 in1004.4 mb 0.00 in0.0 mm 0.00 in0.0 mm 0.00 in0.0 mm
06:35 PM 83.6°F28.7°C 60.0°F15.6°C 45% 3.0 mph SW4.8 kmh SW 12.0 mph19.3 kmh 29.66 in1004.4 mb 0.00 in0.0 mm 0.00 in0.0 mm 0.00 in0.0 mm
06:30 PM 83.7°F28.7°C 61.3°F16.3°C 47% 3.0 mph SW4.8 kmh SW 12.0 mph19.3 kmh 29.66 in1004.4 mb 0.00 in0.0 mm 0.00 in0.0 mm 0.00 in0.0 mm
06:25 PM 83.9°F28.8°C 60.9°F16.1°C 46% 4.0 mph SW6.4 kmh SW 19.0 mph30.6 kmh 29.66 in1004.4 mb 0.00 in0.0 mm 0.00 in0.0 mm 0.00 in0.0 mm
06:20 PM 84.2°F29.0°C 60.5°F15.8°C 45% 11.0 mph SW17.7 kmh SW 19.0 mph30.6 kmh 29.66 in1004.4 mb 0.00 in0.0 mm 0.00 in0.0 mm 0.00 in0.0 mm
06:15 PM 84.4°F29.1°C 61.3°F16.3°C 46% 5.0 mph W8.0 kmh W 19.0 mph30.6 kmh 29.66 in1004.4 mb 0.00 in0.0 mm 0.00 in0.0 mm 0.00 in0.0 mm
06:10 PM 85.0°F29.4°C 60.6°F15.9°C 44% 8.0 mph NNW12.9 kmh NNW 19.0 mph30.6 kmh 29.66 in1004.4 mb 0.00 in0.0 mm 0.00 in0.0 mm 0.00 in0.0 mm
06:05 PM 85.7°F29.8°C 60.6°F15.9°C 43% 7.0 mph SW11.3 kmh SW 13.0 mph20.9 kmh 29.66 in1004.4 mb 0.00 in0.0 mm 0.00 in0.0 mm 0.00 in0.0 mm
06:00 PM 85.9°F29.9°C 60.8°F16.0°C 43% 11.0 mph W17.7 kmh W 14.0 mph22.5 kmh 29.66 in1004.4 mb 0.00 in0.0 mm 0.00 in0.0 mm 0.00 in0.0 mm
05:55 PM 86.0°F30.0°C 60.9°F16.1°C 43% 9.0 mph SW14.5 kmh SW 14.0 mph22.5 kmh 29.67 in1004.7 mb 0.00 in0.0 mm 0.00 in0.0 mm 0.00 in0.0 mm
05:50 PM 86.7°F30.4°C 60.8°F16.0°C 42% 8.0 mph WSW12.9 kmh WSW 15.0 mph24.1 kmh 29.67 in1004.7 mb 0.00 in0.0 mm 0.00 in0.0 mm 0.00 in0.0 mm
05:45 PM 86.5°F30.3°C 61.3°F16.3°C 43% 4.0 mph W6.4 kmh W 15.0 mph24.1 kmh 29.67 in1004.7 mb 0.00 in0.0 mm 0.00 in0.0 mm 0.00 in0.0 mm
05:40 PM 86.8°F30.4°C 60.9°F16.1°C 42% 10.0 mph W16.1 kmh W 16.0 mph25.7 kmh 29.66 in1004.4 mb 0.00 in0.0 mm 0.00 in0.0 mm 0.00 in0.0 mm
05:35 PM 87.1°F30.6°C 61.2°F16.2°C 42% 8.0 mph NW12.9 kmh NW 16.0 mph25.7 kmh 29.66 in1004.4 mb 0.00 in0.0 mm 0.00 in0.0 mm 0.00 in0.0 mm
05:30 PM 86.7°F30.4°C 60.8°F16.0°C 42% 7.0 mph WSW11.3 kmh WSW 16.0 mph25.7 kmh 29.66 in1004.4 mb 0.00 in0.0 mm 0.00 in0.0 mm 0.00 in0.0 mm
05:25 PM 86.6°F30.3°C 60.7°F15.9°C 42% 11.0 mph SW17.7 kmh SW 16.0 mph25.7 kmh 29.67 in1004.7 mb 0.00 in0.0 mm 0.00 in0.0 mm 0.00 in0.0 mm
05:20 PM 86.8°F30.4°C 60.9°F16.1°C 42% 9.0 mph SW14.5 kmh SW 16.0 mph25.7 kmh 29.67 in1004.7 mb 0.00 in0.0 mm 0.00 in0.0 mm 0.00 in0.0 mm
05:15 PM 87.0°F30.6°C 61.1°F16.2°C 42% 10.0 mph SW16.1 kmh SW 16.0 mph25.7 kmh 29.67 in1004.7 mb 0.00 in0.0 mm 0.00 in0.0 mm 0.00 in0.0 mm
05:10 PM 86.8°F30.4°C 60.9°F16.1°C 42% 6.0 mph WSW9.7 kmh WSW 15.0 mph24.1 kmh 29.66 in1004.4 mb 0.00 in0.0 mm 0.00 in0.0 mm 0.00 in0.0 mm
05:05 PM 87.3°F30.7°C 60.7°F15.9°C 41% 6.0 mph SW9.7 kmh SW 18.0 mph29.0 kmh 29.66 in1004.4 mb 0.00 in0.0 mm 0.00 in0.0 mm 0.00 in0.0 mm
05:00 PM 87.1°F30.6°C 61.2°F16.2°C 42% 7.0 mph WSW11.3 kmh WSW 18.0 mph29.0 kmh 29.66 in1004.4 mb 0.00 in0.0 mm 0.00 in0.0 mm 0.00 in0.0 mm
04:55 PM 87.0°F30.6°C 61.1°F16.2°C 42% 5.0 mph WSW8.0 kmh WSW 18.0 mph29.0 kmh 29.66 in1004.4 mb 0.00 in0.0 mm 0.00 in0.0 mm 0.00 in0.0 mm
04:50 PM 86.8°F30.4°C 61.6°F16.4°C 43% 10.0 mph WSW16.1 kmh WSW 18.0 mph29.0 kmh 29.66 in1004.4 mb 0.00 in0.0 mm 0.00 in0.0 mm 0.00 in0.0 mm
04:45 PM 87.0°F30.6°C 61.1°F16.2°C 42% 8.0 mph WSW12.9 kmh WSW 18.0 mph29.0 kmh 29.66 in1004.4 mb 0.00 in0.0 mm 0.00 in0.0 mm 0.00 in0.0 mm
04:40 PM 87.3°F30.7°C 62.0°F16.7°C 43% 12.0 mph SW19.3 kmh SW 19.0 mph30.6 kmh 29.67 in1004.7 mb 0.00 in0.0 mm 0.00 in0.0 mm 0.00 in0.0 mm
04:35 PM 87.8°F31.0°C 61.1°F16.2°C 41% 12.0 mph WSW19.3 kmh WSW 19.0 mph30.6 kmh 29.67 in1004.7 mb 0.00 in0.0 mm 0.00 in0.0 mm 0.00 in0.0 mm
04:30 PM 88.0°F31.1°C 62.0°F16.7°C 42% 15.0 mph WSW24.1 kmh WSW 19.0 mph30.6 kmh 29.67 in1004.7 mb 0.00 in0.0 mm 0.00 in0.0 mm 0.00 in0.0 mm
04:25 PM 88.3°F31.3°C 62.3°F16.8°C 42% 8.0 mph WSW12.9 kmh WSW 19.0 mph30.6 kmh 29.66 in1004.4 mb 0.00 in0.0 mm 0.00 in0.0 mm 0.00 in0.0 mm
04:20 PM 88.1°F31.2°C 62.7°F17.1°C 43% 8.0 mph SW12.9 kmh SW 19.0 mph30.6 kmh 29.66 in1004.4 mb 0.00 in0.0 mm 0.00 in0.0 mm 0.00 in0.0 mm
04:15 PM 88.7°F31.5°C 62.6°F17.0°C 42% 10.0 mph SW16.1 kmh SW 19.0 mph30.6 kmh 29.66 in1004.4 mb 0.00 in0.0 mm 0.00 in0.0 mm 0.00 in0.0 mm
04:10 PM 88.6°F31.4°C 62.5°F16.9°C 42% 6.0 mph W9.7 kmh W 19.0 mph30.6 kmh 29.66 in1004.4 mb 0.00 in0.0 mm 0.00 in0.0 mm 0.00 in0.0 mm
04:05 PM 88.5°F31.4°C 62.4°F16.9°C 42% 6.0 mph NW9.7 kmh NW 19.0 mph30.6 kmh 29.66 in1004.4 mb 0.00 in0.0 mm 0.00 in0.0 mm 0.00 in0.0 mm
04:00 PM 88.6°F31.4°C 62.5°F16.9°C 42% 12.0 mph SW19.3 kmh SW 14.0 mph22.5 kmh 29.66 in1004.4 mb 0.00 in0.0 mm 0.00 in0.0 mm 0.00 in0.0 mm
03:55 PM 88.9°F31.6°C 62.8°F17.1°C 42% 6.0 mph WNW9.7 kmh WNW 14.0 mph22.5 kmh 29.66 in1004.4 mb 0.00 in0.0 mm 0.00 in0.0 mm 0.00 in0.0 mm
03:50 PM 89.1°F31.7°C 63.0°F17.2°C 42% 4.0 mph SW6.4 kmh SW 14.0 mph22.5 kmh 29.66 in1004.4 mb 0.00 in0.0 mm 0.00 in0.0 mm 0.00 in0.0 mm
03:45 PM 89.1°F31.7°C 63.0°F17.2°C 42% 2.0 mph SSW3.2 kmh SSW 16.0 mph25.7 kmh 29.66 in1004.4 mb 0.00 in0.0 mm 0.00 in0.0 mm 0.00 in0.0 mm
03:40 PM 89.2°F31.8°C 63.1°F17.3°C 42% 3.0 mph NW4.8 kmh NW 16.0 mph25.7 kmh 29.66 in1004.4 mb 0.00 in0.0 mm 0.00 in0.0 mm 0.00 in0.0 mm
03:35 PM 89.2°F31.8°C 63.1°F17.3°C 42% 6.0 mph W9.7 kmh W 16.0 mph25.7 kmh 29.66 in1004.4 mb 0.00 in0.0 mm 0.00 in0.0 mm 0.00 in0.0 mm
03:30 PM 89.2°F31.8°C 63.7°F17.6°C 43% 5.0 mph S8.0 kmh S 16.0 mph25.7 kmh 29.66 in1004.4 mb 0.00 in0.0 mm 0.00 in0.0 mm 0.00 in0.0 mm
03:25 PM 89.2°F31.8°C 63.1°F17.3°C 42% 10.0 mph W16.1 kmh W 15.0 mph24.1 kmh 29.66 in1004.4 mb 0.00 in0.0 mm 0.00 in0.0 mm 0.00 in0.0 mm
03:20 PM 89.3°F31.8°C 63.8°F17.7°C 43% 9.0 mph W14.5 kmh W 15.0 mph24.1 kmh 29.66 in1004.4 mb 0.00 in0.0 mm 0.00 in0.0 mm 0.00 in0.0 mm
03:15 PM 89.5°F31.9°C 63.3°F17.4°C 42% 6.0 mph WSW9.7 kmh WSW 15.0 mph24.1 kmh 29.66 in1004.4 mb 0.00 in0.0 mm 0.00 in0.0 mm 0.00 in0.0 mm
03:10 PM 89.5°F31.9°C 63.3°F17.4°C 42% 8.0 mph WSW12.9 kmh WSW 16.0 mph25.7 kmh 29.65 in1004.1 mb 0.00 in0.0 mm 0.00 in0.0 mm 0.00 in0.0 mm
03:05 PM 90.2°F32.3°C 63.3°F17.4°C 41% 6.0 mph WNW9.7 kmh WNW 16.0 mph25.7 kmh 29.65 in1004.1 mb 0.00 in0.0 mm 0.00 in0.0 mm 0.00 in0.0 mm
03:00 PM 90.2°F32.3°C 63.3°F17.4°C 41% 12.0 mph W19.3 kmh W 16.0 mph25.7 kmh 29.65 in1004.1 mb 0.00 in0.0 mm 0.00 in0.0 mm 0.00 in0.0 mm
02:55 PM 90.3°F32.4°C 64.0°F17.8°C 42% 9.0 mph NW14.5 kmh NW 16.0 mph25.7 kmh 29.65 in1004.1 mb 0.00 in0.0 mm 0.00 in0.0 mm 0.00 in0.0 mm
02:50 PM 90.4°F32.4°C 63.4°F17.4°C 41% 8.0 mph W12.9 kmh W 15.0 mph24.1 kmh 29.65 in1004.1 mb 0.00 in0.0 mm 0.00 in0.0 mm 0.00 in0.0 mm
02:45 PM 90.5°F32.5°C 63.5°F17.5°C 41% 8.0 mph W12.9 kmh W 15.0 mph24.1 kmh 29.65 in1004.1 mb 0.00 in0.0 mm 0.00 in0.0 mm 0.00 in0.0 mm
02:40 PM 90.5°F32.5°C 63.5°F17.5°C 41% 4.0 mph W6.4 kmh W 19.0 mph30.6 kmh 29.66 in1004.4 mb 0.00 in0.0 mm 0.00 in0.0 mm 0.00 in0.0 mm
02:35 PM 90.3°F32.4°C 63.4°F17.4°C 41% 7.0 mph WNW11.3 kmh WNW 19.0 mph30.6 kmh 29.66 in1004.4 mb 0.00 in0.0 mm 0.00 in0.0 mm 0.00 in0.0 mm
02:30 PM 90.8°F32.7°C 63.1°F17.3°C 40% 4.0 mph WSW6.4 kmh WSW 19.0 mph30.6 kmh 29.66 in1004.4 mb 0.00 in0.0 mm 0.00 in0.0 mm 0.00 in0.0 mm
02:25 PM 90.4°F32.4°C 62.7°F17.1°C 40% 8.0 mph WSW12.9 kmh WSW 19.0 mph30.6 kmh 29.66 in1004.4 mb 0.00 in0.0 mm 0.00 in0.0 mm 0.00 in0.0 mm
02:20 PM 90.4°F32.4°C 63.4°F17.4°C 41% 4.0 mph SW6.4 kmh SW 14.0 mph22.5 kmh 29.66 in1004.4 mb 0.00 in0.0 mm 0.00 in0.0 mm 0.00 in0.0 mm
02:15 PM 91.0°F32.8°C 64.0°F17.8°C 41% 9.0 mph NNW14.5 kmh NNW 13.0 mph20.9 kmh 29.66 in1004.4 mb 0.00 in0.0 mm 0.00 in0.0 mm 0.00 in0.0 mm
02:10 PM 91.1°F32.8°C 64.1°F17.8°C 41% 7.0 mph NW11.3 kmh NW 13.0 mph20.9 kmh 29.66 in1004.4 mb 0.00 in0.0 mm 0.00 in0.0 mm 0.00 in0.0 mm
02:05 PM 90.5°F32.5°C 62.8°F17.1°C 40% 10.0 mph SW16.1 kmh SW 14.0 mph22.5 kmh 29.66 in1004.4 mb 0.00 in0.0 mm 0.00 in0.0 mm 0.00 in0.0 mm
02:00 PM 90.5°F32.5°C 63.5°F17.5°C 41% 5.0 mph WSW8.0 kmh WSW 14.0 mph22.5 kmh 29.66 in1004.4 mb 0.00 in0.0 mm 0.00 in0.0 mm 0.00 in0.0 mm
01:55 PM 90.6°F32.6°C 64.3°F17.9°C 42% 7.0 mph W11.3 kmh W 16.0 mph25.7 kmh 29.68 in1005.1 mb 0.00 in0.0 mm 0.00 in0.0 mm 0.00 in0.0 mm
01:50 PM 90.5°F32.5°C 63.5°F17.5°C 41% 5.0 mph SW8.0 kmh SW 16.0 mph25.7 kmh 29.68 in1005.1 mb 0.00 in0.0 mm 0.00 in0.0 mm 0.00 in0.0 mm
01:45 PM 89.9°F32.2°C 63.7°F17.6°C 42% 4.0 mph S6.4 kmh S 16.0 mph25.7 kmh 29.68 in1005.1 mb 0.00 in0.0 mm 0.00 in0.0 mm 0.00 in0.0 mm
01:40 PM 90.0°F32.2°C 63.1°F17.3°C 41% 2.0 mph WSW3.2 kmh WSW 16.0 mph25.7 kmh 29.68 in1005.1 mb 0.00 in0.0 mm 0.00 in0.0 mm 0.00 in0.0 mm
01:35 PM 90.6°F32.6°C 63.6°F17.6°C 41% 2.0 mph NNW3.2 kmh NNW 13.0 mph20.9 kmh 29.68 in1005.1 mb 0.00 in0.0 mm 0.00 in0.0 mm 0.00 in0.0 mm
01:30 PM 90.9°F32.7°C 63.2°F17.3°C 40% 7.0 mph SW11.3 kmh SW 16.0 mph25.7 kmh 29.68 in1005.1 mb 0.00 in0.0 mm 0.00 in0.0 mm 0.00 in0.0 mm
01:25 PM 90.3°F32.4°C 64.0°F17.8°C 42% 5.0 mph W8.0 kmh W 16.0 mph25.7 kmh 29.68 in1005.1 mb 0.00 in0.0 mm 0.00 in0.0 mm 0.00 in0.0 mm
01:20 PM 90.3°F32.4°C 64.0°F17.8°C 42% 6.0 mph NW9.7 kmh NW 16.0 mph25.7 kmh 29.68 in1005.1 mb 0.00 in0.0 mm 0.00 in0.0 mm 0.00 in0.0 mm
01:15 PM 90.4°F32.4°C 63.4°F17.4°C 41% 5.0 mph SW8.0 kmh SW 16.0 mph25.7 kmh 29.68 in1005.1 mb 0.00 in0.0 mm 0.00 in0.0 mm 0.00 in0.0 mm
01:10 PM 89.4°F31.9°C 63.9°F17.7°C 43% 1.0 mph NNE1.6 kmh NNE 15.0 mph24.1 kmh 29.70 in1005.8 mb 0.00 in0.0 mm 0.00 in0.0 mm 0.00 in0.0 mm
01:05 PM 89.0°F31.7°C 62.9°F17.2°C 42% 6.0 mph WSW9.7 kmh WSW 15.0 mph24.1 kmh 29.70 in1005.8 mb 0.00 in0.0 mm 0.00 in0.0 mm 0.00 in0.0 mm
01:00 PM 89.2°F31.8°C 63.7°F17.6°C 43% 1.0 mph SSW1.6 kmh SSW 12.0 mph19.3 kmh 29.70 in1005.8 mb 0.00 in0.0 mm 0.00 in0.0 mm 0.00 in0.0 mm
12:55 PM 89.5°F31.9°C 63.3°F17.4°C 42% 2.0 mph W3.2 kmh W 13.0 mph20.9 kmh 29.70 in1005.8 mb 0.00 in0.0 mm 0.00 in0.0 mm 0.00 in0.0 mm
12:50 PM 89.0°F31.7°C 63.6°F17.6°C 43% 5.0 mph SW8.0 kmh SW 13.0 mph20.9 kmh 29.70 in1005.8 mb 0.00 in0.0 mm 0.00 in0.0 mm 0.00 in0.0 mm
12:45 PM 89.3°F31.8°C 63.8°F17.7°C 43% 8.0 mph SW12.9 kmh SW 13.0 mph20.9 kmh 29.70 in1005.8 mb 0.00 in0.0 mm 0.00 in0.0 mm 0.00 in0.0 mm
12:40 PM 88.8°F31.6°C 64.0°F17.8°C 44% 4.0 mph NW6.4 kmh NW 13.0 mph20.9 kmh 29.70 in1005.8 mb 0.00 in0.0 mm 0.00 in0.0 mm 0.00 in0.0 mm
12:35 PM 88.7°F31.5°C 63.3°F17.4°C 43% 8.0 mph SW12.9 kmh SW 13.0 mph20.9 kmh 29.70 in1005.8 mb 0.00 in0.0 mm 0.00 in0.0 mm 0.00 in0.0 mm
12:30 PM 88.4°F31.3°C 63.7°F17.6°C 44% 4.0 mph W6.4 kmh W 13.0 mph20.9 kmh 29.70 in1005.8 mb 0.00 in0.0 mm 0.00 in0.0 mm 0.00 in0.0 mm
12:25 PM 89.3°F31.8°C 63.8°F17.7°C 43% 8.0 mph W12.9 kmh W 12.0 mph19.3 kmh 29.70 in1005.8 mb 0.00 in0.0 mm 0.00 in0.0 mm 0.00 in0.0 mm
12:20 PM 89.0°F31.7°C 64.2°F17.9°C 44% 6.0 mph WSW9.7 kmh WSW 13.0 mph20.9 kmh 29.70 in1005.8 mb 0.00 in0.0 mm 0.00 in0.0 mm 0.00 in0.0 mm
12:15 PM 88.6°F31.4°C 63.9°F17.7°C 44% 2.0 mph NW3.2 kmh NW 13.0 mph20.9 kmh 29.70 in1005.8 mb 0.00 in0.0 mm 0.00 in0.0 mm 0.00 in0.0 mm
12:10 PM 88.6°F31.4°C 63.2°F17.3°C 43% 5.0 mph WSW8.0 kmh WSW 14.0 mph22.5 kmh 29.70 in1005.8 mb 0.00 in0.0 mm 0.00 in0.0 mm 0.00 in0.0 mm
12:05 PM 88.6°F31.4°C 64.5°F18.1°C 45% 5.0 mph WNW8.0 kmh WNW 14.0 mph22.5 kmh 29.70 in1005.8 mb 0.00 in0.0 mm 0.00 in0.0 mm 0.00 in0.0 mm
12:00 PM 87.8°F31.0°C 63.8°F17.7°C 45% 1.0 mph SW1.6 kmh SW 14.0 mph22.5 kmh 29.70 in1005.8 mb 0.00 in0.0 mm 0.00 in0.0 mm 0.00 in0.0 mm
11:55 AM 87.4°F30.8°C 62.8°F17.1°C 44% 2.0 mph WSW3.2 kmh WSW 14.0 mph22.5 kmh 29.70 in1005.8 mb 0.00 in0.0 mm 0.00 in0.0 mm 0.00 in0.0 mm
11:50 AM 88.3°F31.3°C 63.6°F17.6°C 44% 11.0 mph SW17.7 kmh SW 14.0 mph22.5 kmh 29.70 in1005.8 mb 0.00 in0.0 mm 0.00 in0.0 mm 0.00 in0.0 mm
11:45 AM 87.7°F30.9°C 64.3°F17.9°C 46% 2.0 mph SW3.2 kmh SW 14.0 mph22.5 kmh 29.70 in1005.8 mb 0.00 in0.0 mm 0.00 in0.0 mm 0.00 in0.0 mm
11:40 AM 87.5°F30.8°C 64.1°F17.8°C 46% 7.0 mph SW11.3 kmh SW 14.0 mph22.5 kmh 29.70 in1005.8 mb 0.00 in0.0 mm 0.00 in0.0 mm 0.00 in0.0 mm
11:35 AM 87.1°F30.6°C 63.8°F17.7°C 46% 7.0 mph SW11.3 kmh SW 13.0 mph20.9 kmh 29.70 in1005.8 mb 0.00 in0.0 mm 0.00 in0.0 mm 0.00 in0.0 mm
11:30 AM 87.2°F30.7°C 63.2°F17.3°C 45% 4.0 mph SW6.4 kmh SW 13.0 mph20.9 kmh 29.70 in1005.8 mb 0.00 in0.0 mm 0.00 in0.0 mm 0.00 in0.0 mm
11:25 AM 87.4°F30.8°C 63.4°F17.4°C 45% 8.0 mph WSW12.9 kmh WSW 13.0 mph20.9 kmh 29.70 in1005.8 mb 0.00 in0.0 mm 0.00 in0.0 mm 0.00 in0.0 mm
11:20 AM 87.8°F31.0°C 63.8°F17.7°C 45% 9.0 mph WSW14.5 kmh WSW 12.0 mph19.3 kmh 29.70 in1005.8 mb 0.00 in0.0 mm 0.00 in0.0 mm 0.00 in0.0 mm
11:15 AM 87.7°F30.9°C 63.7°F17.6°C 45% 6.0 mph W9.7 kmh W 12.0 mph19.3 kmh 29.70 in1005.8 mb 0.00 in0.0 mm 0.00 in0.0 mm 0.00 in0.0 mm
11:10 AM 87.4°F30.8°C 63.4°F17.4°C 45% 3.0 mph W4.8 kmh W 12.0 mph19.3 kmh 29.70 in1005.8 mb 0.00 in0.0 mm 0.00 in0.0 mm 0.00 in0.0 mm
11:05 AM 87.3°F30.7°C 64.0°F17.8°C 46% 1.0 mph NW1.6 kmh NW 11.0 mph17.7 kmh 29.70 in1005.8 mb 0.00 in0.0 mm 0.00 in0.0 mm 0.00 in0.0 mm
11:00 AM 87.0°F30.6°C 63.1°F17.3°C 45% 7.0 mph W11.3 kmh W 11.0 mph17.7 kmh 29.70 in1005.8 mb 0.00 in0.0 mm 0.00 in0.0 mm 0.00 in0.0 mm
10:55 AM 87.2°F30.7°C 63.2°F17.3°C 45% 4.0 mph W6.4 kmh W 11.0 mph17.7 kmh 29.70 in1005.8 mb 0.00 in0.0 mm 0.00 in0.0 mm 0.00 in0.0 mm
10:50 AM 86.6°F30.3°C 63.3°F17.4°C 46% 4.0 mph WSW6.4 kmh WSW 10.0 mph16.1 kmh 29.70 in1005.8 mb 0.00 in0.0 mm 0.00 in0.0 mm 0.00 in0.0 mm
10:45 AM 86.6°F30.3°C 62.7°F17.1°C 45% 4.0 mph W6.4 kmh W 9.0 mph14.5 kmh 29.70 in1005.8 mb 0.00 in0.0 mm 0.00 in0.0 mm 0.00 in0.0 mm
10:40 AM 86.3°F30.2°C 62.4°F16.9°C 45% 3.0 mph W4.8 kmh W 10.0 mph16.1 kmh 29.70 in1005.8 mb 0.00 in0.0 mm 0.00 in0.0 mm 0.00 in0.0 mm
10:35 AM 86.3°F30.2°C 63.0°F17.2°C 46% 2.0 mph W3.2 kmh W 10.0 mph16.1 kmh 29.70 in1005.8 mb 0.00 in0.0 mm 0.00 in0.0 mm 0.00 in0.0 mm
10:30 AM 86.4°F30.2°C 62.5°F16.9°C 45% 2.0 mph SW3.2 kmh SW 10.0 mph16.1 kmh 29.70 in1005.8 mb 0.00 in0.0 mm 0.00 in0.0 mm 0.00 in0.0 mm
10:25 AM 86.5°F30.3°C 62.6°F17.0°C 45% 3.0 mph SW4.8 kmh SW 10.0 mph16.1 kmh 29.69 in1005.4 mb 0.00 in0.0 mm 0.00 in0.0 mm 0.00 in0.0 mm
10:20 AM 86.0°F30.0°C 63.4°F17.4°C 47% 2.0 mph WSW3.2 kmh WSW 10.0 mph16.1 kmh 29.69 in1005.4 mb 0.00 in0.0 mm 0.00 in0.0 mm 0.00 in0.0 mm
10:15 AM 85.8°F29.9°C 62.6°F17.0°C 46% 9.0 mph WSW14.5 kmh WSW 11.0 mph17.7 kmh 29.69 in1005.4 mb 0.00 in0.0 mm 0.00 in0.0 mm 0.00 in0.0 mm
10:10 AM 85.7°F29.8°C 61.9°F16.6°C 45% 5.0 mph W8.0 kmh W 11.0 mph17.7 kmh 29.69 in1005.4 mb 0.00 in0.0 mm 0.00 in0.0 mm 0.00 in0.0 mm
10:05 AM 85.5°F29.7°C 62.9°F17.2°C 47% 3.0 mph SW4.8 kmh SW 11.0 mph17.7 kmh 29.69 in1005.4 mb 0.00 in0.0 mm 0.00 in0.0 mm 0.00 in0.0 mm
10:00 AM 85.4°F29.7°C 62.2°F16.8°C 46% 7.0 mph SW11.3 kmh SW 11.0 mph17.7 kmh 29.69 in1005.4 mb 0.00 in0.0 mm 0.00 in0.0 mm 0.00 in0.0 mm
09:55 AM 85.4°F29.7°C 62.2°F16.8°C 46% 5.0 mph SW8.0 kmh SW 10.0 mph16.1 kmh 29.69 in1005.4 mb 0.00 in0.0 mm 0.00 in0.0 mm 0.00 in0.0 mm
09:50 AM 85.6°F29.8°C 62.4°F16.9°C 46% 8.0 mph SW12.9 kmh SW 10.0 mph16.1 kmh 29.69 in1005.4 mb 0.00 in0.0 mm 0.00 in0.0 mm 0.00 in0.0 mm
09:45 AM 85.2°F29.6°C 62.7°F17.1°C 47% 5.0 mph SW8.0 kmh SW 9.0 mph14.5 kmh 29.69 in1005.4 mb 0.00 in0.0 mm 0.00 in0.0 mm 0.00 in0.0 mm
09:40 AM 84.4°F29.1°C 63.1°F17.3°C 49% 6.0 mph SW9.7 kmh SW 9.0 mph14.5 kmh 29.70 in1005.8 mb 0.00 in0.0 mm 0.00 in0.0 mm 0.00 in0.0 mm
09:35 AM 84.2°F29.0°C 63.5°F17.5°C 50% 2.0 mph SSE3.2 kmh SSE 8.0 mph12.9 kmh 29.70 in1005.8 mb 0.00 in0.0 mm 0.00 in0.0 mm 0.00 in0.0 mm
09:30 AM 83.1°F28.4°C 63.1°F17.3°C 51% 2.0 mph SW3.2 kmh SW 8.0 mph12.9 kmh 29.70 in1005.8 mb 0.00 in0.0 mm 0.00 in0.0 mm 0.00 in0.0 mm
09:25 AM 82.5°F28.1°C 63.6°F17.6°C 53% 5.0 mph SSW8.0 kmh SSW 8.0 mph12.9 kmh 29.70 in1005.8 mb 0.00 in0.0 mm 0.00 in0.0 mm 0.00 in0.0 mm
09:20 AM 82.7°F28.2°C 63.3°F17.4°C 52% 5.0 mph S8.0 kmh S 6.0 mph9.7 kmh 29.70 in1005.8 mb 0.00 in0.0 mm 0.00 in0.0 mm 0.00 in0.0 mm
09:15 AM 82.5°F28.1°C 63.1°F17.3°C 52% Calm Calm 6.0 mph9.7 kmh 29.70 in1005.8 mb 0.00 in0.0 mm 0.00 in0.0 mm 0.00 in0.0 mm
09:10 AM 82.7°F28.2°C 63.3°F17.4°C 52% 5.0 mph WSW8.0 kmh WSW 6.0 mph9.7 kmh 29.70 in1005.8 mb 0.00 in0.0 mm 0.00 in0.0 mm 0.00 in0.0 mm
09:05 AM 82.2°F27.9°C 63.3°F17.4°C 53% 4.0 mph SW6.4 kmh SW 6.0 mph9.7 kmh 29.70 in1005.8 mb 0.00 in0.0 mm 0.00 in0.0 mm 0.00 in0.0 mm
09:00 AM 82.1°F27.8°C 63.8°F17.7°C 54% Calm Calm 6.0 mph9.7 kmh 29.70 in1005.8 mb 0.00 in0.0 mm 0.00 in0.0 mm 0.00 in0.0 mm
08:55 AM 81.3°F27.4°C 63.6°F17.6°C 55% 2.0 mph SE3.2 kmh SE 5.0 mph8.0 kmh 29.70 in1005.8 mb 0.00 in0.0 mm 0.00 in0.0 mm 0.00 in0.0 mm
08:50 AM 80.6°F27.0°C 63.4°F17.4°C 56% 2.0 mph SW3.2 kmh SW 5.0 mph8.0 kmh 29.70 in1005.8 mb 0.00 in0.0 mm 0.00 in0.0 mm 0.00 in0.0 mm
08:45 AM 80.1°F26.7°C 63.0°F17.2°C 56% 4.0 mph WSW6.4 kmh WSW 5.0 mph8.0 kmh 29.70 in1005.8 mb 0.00 in0.0 mm 0.00 in0.0 mm 0.00 in0.0 mm
08:40 AM 79.4°F26.3°C 63.3°F17.4°C 58% 1.0 mph WSW1.6 kmh WSW 5.0 mph8.0 kmh 29.71 in1006.1 mb 0.00 in0.0 mm 0.00 in0.0 mm 0.00 in0.0 mm
08:35 AM 79.5°F26.4°C 63.4°F17.4°C 58% 3.0 mph SW4.8 kmh SW 5.0 mph8.0 kmh 29.71 in1006.1 mb 0.00 in0.0 mm 0.00 in0.0 mm 0.00 in0.0 mm
08:30 AM 79.0°F26.1°C 63.4°F17.4°C 59% 1.0 mph W1.6 kmh W 5.0 mph8.0 kmh 29.71 in1006.1 mb 0.00 in0.0 mm 0.00 in0.0 mm 0.00 in0.0 mm
08:25 AM 78.9°F26.1°C 64.3°F17.9°C 61% 2.0 mph WSW3.2 kmh WSW 4.0 mph6.4 kmh 29.71 in1006.1 mb 0.00 in0.0 mm 0.00 in0.0 mm 0.00 in0.0 mm
08:20 AM 78.1°F25.6°C 63.5°F17.5°C 61% Calm Calm 4.0 mph6.4 kmh 29.71 in1006.1 mb 0.00 in0.0 mm 0.00 in0.0 mm 0.00 in0.0 mm
08:15 AM 77.8°F25.4°C 63.7°F17.6°C 62% 2.0 mph SSW3.2 kmh SSW 4.0 mph6.4 kmh 29.71 in1006.1 mb 0.00 in0.0 mm 0.00 in0.0 mm 0.00 in0.0 mm
08:10 AM 77.7°F25.4°C 63.6°F17.6°C 62% 2.0 mph SSE3.2 kmh SSE 4.0 mph6.4 kmh 29.71 in1006.1 mb 0.00 in0.0 mm 0.00 in0.0 mm 0.00 in0.0 mm
08:05 AM 77.3°F25.2°C 63.7°F17.6°C 63% 2.0 mph WSW3.2 kmh WSW 4.0 mph6.4 kmh 29.71 in1006.1 mb 0.00 in0.0 mm 0.00 in0.0 mm 0.00 in0.0 mm
08:00 AM 76.6°F24.8°C 63.0°F17.2°C 63% 1.0 mph SW1.6 kmh SW 4.0 mph6.4 kmh 29.71 in1006.1 mb 0.00 in0.0 mm 0.00 in0.0 mm 0.00 in0.0 mm
07:55 AM 76.8°F24.9°C 63.2°F17.3°C 63% 2.0 mph SW3.2 kmh SW 4.0 mph6.4 kmh 29.71 in1006.1 mb 0.00 in0.0 mm 0.00 in0.0 mm 0.00 in0.0 mm
07:50 AM 77.2°F25.1°C 63.6°F17.6°C 63% Calm Calm 4.0 mph6.4 kmh 29.71 in1006.1 mb 0.00 in0.0 mm 0.00 in0.0 mm 0.00 in0.0 mm
07:45 AM 77.0°F25.0°C 63.4°F17.4°C 63% 1.0 mph SSE1.6 kmh SSE 2.0 mph3.2 kmh 29.71 in1006.1 mb 0.00 in0.0 mm 0.00 in0.0 mm 0.00 in0.0 mm
07:40 AM 77.0°F25.0°C 63.4°F17.4°C 63% 1.0 mph S1.6 kmh S 2.0 mph3.2 kmh 29.71 in1006.1 mb 0.00 in0.0 mm 0.00 in0.0 mm 0.00 in0.0 mm
07:35 AM 76.3°F24.6°C 63.6°F17.6°C 65% Calm Calm 1.0 mph1.6 kmh 29.71 in1006.1 mb 0.00 in0.0 mm 0.00 in0.0 mm 0.00 in0.0 mm
07:30 AM 76.0°F24.4°C 63.4°F17.4°C 65% Calm Calm -- 29.71 in1006.1 mb 0.00 in0.0 mm 0.00 in0.0 mm 0.00 in0.0 mm
07:25 AM 75.4°F24.1°C 63.2°F17.3°C 66% Calm Calm -- 29.71 in1006.1 mb 0.00 in0.0 mm 0.00 in0.0 mm 0.00 in0.0 mm
07:20 AM 74.0°F23.3°C 62.3°F16.8°C 67% Calm Calm 1.0 mph1.6 kmh 29.71 in1006.1 mb 0.00 in0.0 mm 0.00 in0.0 mm 0.00 in0.0 mm
07:15 AM 73.3°F22.9°C 61.7°F16.5°C 67% Calm Calm 1.0 mph1.6 kmh 29.71 in1006.1 mb 0.00 in0.0 mm 0.00 in0.0 mm 0.00 in0.0 mm
07:10 AM 73.1°F22.8°C 61.9°F16.6°C 68% Calm Calm 1.0 mph1.6 kmh 29.71 in1006.1 mb 0.00 in0.0 mm 0.00 in0.0 mm 0.00 in0.0 mm
07:05 AM 72.6°F22.6°C 62.2°F16.8°C 70% Calm Calm 1.0 mph1.6 kmh 29.71 in1006.1 mb 0.00 in0.0 mm 0.00 in0.0 mm 0.00 in0.0 mm
07:00 AM 71.7°F22.1°C 62.2°F16.8°C 72% Calm Calm 1.0 mph1.6 kmh 29.71 in1006.1 mb 0.00 in0.0 mm 0.00 in0.0 mm 0.00 in0.0 mm
06:55 AM 70.6°F21.4°C 61.5°F16.4°C 73% Calm Calm -- 29.71 in1006.1 mb 0.00 in0.0 mm 0.00 in0.0 mm 0.00 in0.0 mm
06:50 AM 70.0°F21.1°C 61.3°F16.3°C 74% Calm Calm -- 29.71 in1006.1 mb 0.00 in0.0 mm 0.00 in0.0 mm 0.00 in0.0 mm
06:45 AM 68.8°F20.4°C 60.9°F16.1°C 76% Calm Calm -- 29.71 in1006.1 mb 0.00 in0.0 mm 0.00 in0.0 mm 0.00 in0.0 mm
06:40 AM 68.2°F20.1°C 60.7°F15.9°C 77% Calm Calm 1.0 mph1.6 kmh 29.71 in1006.1 mb 0.00 in0.0 mm 0.00 in0.0 mm 0.00 in0.0 mm
06:35 AM 67.5°F19.7°C 60.7°F15.9°C 79% Calm Calm -- 29.71 in1006.1 mb 0.00 in0.0 mm 0.00 in0.0 mm 0.00 in0.0 mm
06:30 AM 67.1°F19.5°C 60.4°F15.8°C 79% Calm Calm -- 29.71 in1006.1 mb 0.00 in0.0 mm 0.00 in0.0 mm 0.00 in0.0 mm
06:25 AM 66.8°F19.3°C 60.4°F15.8°C 80% Calm Calm -- 29.72 in1006.4 mb 0.00 in0.0 mm 0.00 in0.0 mm 0.00 in0.0 mm
06:20 AM 66.8°F19.3°C 60.4°F15.8°C 80% Calm Calm -- 29.72 in1006.4 mb 0.00 in0.0 mm 0.00 in0.0 mm 0.00 in0.0 mm
06:15 AM 66.6°F19.2°C 60.2°F15.7°C 80% Calm Calm -- 29.72 in1006.4 mb 0.00 in0.0 mm 0.00 in0.0 mm 0.00 in0.0 mm
06:10 AM 66.3°F19.1°C 60.3°F15.7°C 81% Calm Calm -- 29.71 in1006.1 mb 0.00 in0.0 mm 0.00 in0.0 mm 0.00 in0.0 mm
06:05 AM 66.1°F18.9°C 60.1°F15.6°C 81% Calm Calm -- 29.71 in1006.1 mb 0.00 in0.0 mm 0.00 in0.0 mm 0.00 in0.0 mm
06:00 AM 66.1°F18.9°C 59.7°F15.4°C 80% Calm Calm -- 29.71 in1006.1 mb 0.00 in0.0 mm 0.00 in0.0 mm 0.00 in0.0 mm
05:55 AM 66.2°F19.0°C 59.8°F15.4°C 80% 1.0 mph NE1.6 kmh NE 1.0 mph1.6 kmh 29.71 in1006.1 mb 0.00 in0.0 mm 0.00 in0.0 mm 0.00 in0.0 mm
05:50 AM 66.2°F19.0°C 59.8°F15.4°C 80% Calm Calm -- 29.71 in1006.1 mb 0.00 in0.0 mm 0.00 in0.0 mm 0.00 in0.0 mm
05:45 AM 66.3°F19.1°C 59.9°F15.5°C 80% Calm Calm -- 29.71 in1006.1 mb 0.00 in0.0 mm 0.00 in0.0 mm 0.00 in0.0 mm
05:40 AM 66.5°F19.2°C 59.8°F15.4°C 79% Calm Calm -- 29.70 in1005.8 mb 0.00 in0.0 mm 0.00 in0.0 mm 0.00 in0.0 mm
05:35 AM 66.8°F19.3°C 60.1°F15.6°C 79% Calm Calm 1.0 mph1.6 kmh 29.70 in1005.8 mb 0.00 in0.0 mm 0.00 in0.0 mm 0.00 in0.0 mm
05:30 AM 66.7°F19.3°C 60.3°F15.7°C 80% Calm Calm -- 29.70 in1005.8 mb 0.00 in0.0 mm 0.00 in0.0 mm 0.00 in0.0 mm
05:25 AM 66.7°F19.3°C 60.0°F15.6°C 79% Calm Calm -- 29.70 in1005.8 mb 0.00 in0.0 mm 0.00 in0.0 mm 0.00 in0.0 mm
05:20 AM 66.7°F19.3°C 60.0°F15.6°C 79% Calm Calm -- 29.70 in1005.8 mb 0.00 in0.0 mm 0.00 in0.0 mm 0.00 in0.0 mm
05:15 AM 66.8°F19.3°C 60.1°F15.6°C 79% Calm Calm -- 29.70 in1005.8 mb 0.00 in0.0 mm 0.00 in0.0 mm 0.00 in0.0 mm
05:10 AM 66.9°F19.4°C 60.2°F15.7°C 79% Calm Calm -- 29.69 in1005.4 mb 0.00 in0.0 mm 0.00 in0.0 mm 0.00 in0.0 mm
05:05 AM 67.0°F19.4°C 60.3°F15.7°C 79% Calm Calm -- 29.69 in1005.4 mb 0.00 in0.0 mm 0.00 in0.0 mm 0.00 in0.0 mm
05:00 AM 67.1°F19.5°C 60.4°F15.8°C 79% Calm Calm -- 29.69 in1005.4 mb 0.00 in0.0 mm 0.00 in0.0 mm 0.00 in0.0 mm
04:55 AM 67.1°F19.5°C 60.4°F15.8°C 79% Calm Calm -- 29.69 in1005.4 mb 0.00 in0.0 mm 0.00 in0.0 mm 0.00 in0.0 mm
04:50 AM 67.0°F19.4°C 60.3°F15.7°C 79% Calm Calm -- 29.69 in1005.4 mb 0.00 in0.0 mm 0.00 in0.0 mm 0.00 in0.0 mm
04:45 AM 66.8°F19.3°C 60.1°F15.6°C 79% Calm Calm -- 29.69 in1005.4 mb 0.00 in0.0 mm 0.00 in0.0 mm 0.00 in0.0 mm
04:40 AM 66.7°F19.3°C 60.0°F15.6°C 79% Calm Calm -- 29.69 in1005.4 mb 0.00 in0.0 mm 0.00 in0.0 mm 0.00 in0.0 mm
04:35 AM 66.7°F19.3°C 60.0°F15.6°C 79% Calm Calm -- 29.69 in1005.4 mb 0.00 in0.0 mm 0.00 in0.0 mm 0.00 in0.0 mm
04:30 AM 66.8°F19.3°C 60.1°F15.6°C 79% Calm Calm -- 29.69 in1005.4 mb 0.00 in0.0 mm 0.00 in0.0 mm 0.00 in0.0 mm
04:25 AM 66.8°F19.3°C 60.4°F15.8°C 80% Calm Calm -- 29.69 in1005.4 mb 0.00 in0.0 mm 0.00 in0.0 mm 0.00 in0.0 mm
04:20 AM 67.0°F19.4°C 60.3°F15.7°C 79% Calm Calm -- 29.69 in1005.4 mb 0.00 in0.0 mm 0.00 in0.0 mm 0.00 in0.0 mm
04:15 AM 67.0°F19.4°C 60.3°F15.7°C 79% Calm Calm -- 29.69 in1005.4 mb 0.00 in0.0 mm 0.00 in0.0 mm 0.00 in0.0 mm
04:10 AM 67.3°F19.6°C 60.6°F15.9°C 79% Calm Calm -- 29.68 in1005.1 mb 0.00 in0.0 mm 0.00 in0.0 mm 0.00 in0.0 mm
04:05 AM 67.5°F19.7°C 60.7°F15.9°C 79% Calm Calm -- 29.68 in1005.1 mb 0.00 in0.0 mm 0.00 in0.0 mm 0.00 in0.0 mm
04:00 AM 67.5°F19.7°C 60.4°F15.8°C 78% Calm Calm -- 29.68 in1005.1 mb 0.00 in0.0 mm 0.00 in0.0 mm 0.00 in0.0 mm
03:55 AM 67.6°F19.8°C 60.1°F15.6°C 77% Calm Calm -- 29.67 in1004.7 mb 0.00 in0.0 mm 0.00 in0.0 mm 0.00 in0.0 mm
03:50 AM 67.9°F19.9°C 60.4°F15.8°C 77% Calm Calm -- 29.67 in1004.7 mb 0.00 in0.0 mm 0.00 in0.0 mm 0.00 in0.0 mm
03:45 AM 68.1°F20.1°C 60.6°F15.9°C 77% Calm Calm -- 29.67 in1004.7 mb 0.00 in0.0 mm 0.00 in0.0 mm 0.00 in0.0 mm
03:40 AM 68.2°F20.1°C 60.7°F15.9°C 77% Calm Calm 2.0 mph3.2 kmh 29.67 in1004.7 mb 0.00 in0.0 mm 0.00 in0.0 mm 0.00 in0.0 mm
03:35 AM 68.3°F20.2°C 60.8°F16.0°C 77% 1.0 mph W1.6 kmh W 2.0 mph3.2 kmh 29.67 in1004.7 mb 0.00 in0.0 mm 0.00 in0.0 mm 0.00 in0.0 mm
03:30 AM 68.2°F20.1°C 60.7°F15.9°C 77% 1.0 mph W1.6 kmh W 1.0 mph1.6 kmh 29.67 in1004.7 mb 0.00 in0.0 mm 0.00 in0.0 mm 0.00 in0.0 mm
03:25 AM 68.1°F20.1°C 60.6°F15.9°C 77% 1.0 mph NW1.6 kmh NW 1.0 mph1.6 kmh 29.68 in1005.1 mb 0.00 in0.0 mm 0.00 in0.0 mm 0.00 in0.0 mm
03:20 AM 68.1°F20.1°C 60.6°F15.9°C 77% Calm Calm -- 29.68 in1005.1 mb 0.00 in0.0 mm 0.00 in0.0 mm 0.00 in0.0 mm
03:15 AM 68.2°F20.1°C 60.7°F15.9°C 77% Calm Calm -- 29.68 in1005.1 mb 0.00 in0.0 mm 0.00 in0.0 mm 0.00 in0.0 mm
03:10 AM 68.3°F20.2°C 60.8°F16.0°C 77% Calm Calm -- 29.67 in1004.7 mb 0.00 in0.0 mm 0.00 in0.0 mm 0.00 in0.0 mm
03:05 AM 68.3°F20.2°C 60.8°F16.0°C 77% Calm Calm -- 29.67 in1004.7 mb 0.00 in0.0 mm 0.00 in0.0 mm 0.00 in0.0 mm
03:00 AM 68.4°F20.2°C 60.5°F15.8°C 76% Calm Calm -- 29.67 in1004.7 mb 0.00 in0.0 mm 0.00 in0.0 mm 0.00 in0.0 mm
02:55 AM 68.5°F20.3°C 60.6°F15.9°C 76% Calm Calm -- 29.67 in1004.7 mb 0.00 in0.0 mm 0.00 in0.0 mm 0.00 in0.0 mm
02:50 AM 68.5°F20.3°C 60.6°F15.9°C 76% Calm Calm 2.0 mph3.2 kmh 29.67 in1004.7 mb 0.00 in0.0 mm 0.00 in0.0 mm 0.00 in0.0 mm
02:45 AM 68.5°F20.3°C 60.6°F15.9°C 76% Calm Calm 2.0 mph3.2 kmh 29.67 in1004.7 mb 0.00 in0.0 mm 0.00 in0.0 mm 0.00 in0.0 mm
02:40 AM 68.6°F20.3°C 60.7°F15.9°C 76% 1.0 mph NW1.6 kmh NW 2.0 mph3.2 kmh 29.67 in1004.7 mb 0.00 in0.0 mm 0.00 in0.0 mm 0.00 in0.0 mm
02:35 AM 68.6°F20.3°C 60.7°F15.9°C 76% Calm Calm -- 29.67 in1004.7 mb 0.00 in0.0 mm 0.00 in0.0 mm 0.00 in0.0 mm
02:30 AM 68.8°F20.4°C 60.5°F15.8°C 75% Calm Calm 3.0 mph4.8 kmh 29.67 in1004.7 mb 0.00 in0.0 mm 0.00 in0.0 mm 0.00 in0.0 mm
02:25 AM 69.0°F20.6°C 60.7°F15.9°C 75% 1.0 mph WSW1.6 kmh WSW 4.0 mph6.4 kmh 29.68 in1005.1 mb 0.00 in0.0 mm 0.00 in0.0 mm 0.00 in0.0 mm
02:20 AM 69.0°F20.6°C 60.7°F15.9°C 75% Calm Calm 4.0 mph6.4 kmh 29.68 in1005.1 mb 0.00 in0.0 mm 0.00 in0.0 mm 0.00 in0.0 mm
02:15 AM 69.0°F20.6°C 60.7°F15.9°C 75% 2.0 mph WSW3.2 kmh WSW 4.0 mph6.4 kmh 29.68 in1005.1 mb 0.00 in0.0 mm 0.00 in0.0 mm 0.00 in0.0 mm
02:10 AM 69.0°F20.6°C 60.7°F15.9°C 75% 1.0 mph WSW1.6 kmh WSW 4.0 mph6.4 kmh 29.67 in1004.7 mb 0.00 in0.0 mm 0.00 in0.0 mm 0.00 in0.0 mm
02:05 AM 68.9°F20.5°C 61.0°F16.1°C 76% 1.0 mph NW1.6 kmh NW 2.0 mph3.2 kmh 29.67 in1004.7 mb 0.00 in0.0 mm 0.00 in0.0 mm 0.00 in0.0 mm
02:00 AM 68.8°F20.4°C 60.9°F16.1°C 76% Calm Calm 2.0 mph3.2 kmh 29.67 in1004.7 mb 0.00 in0.0 mm 0.00 in0.0 mm 0.00 in0.0 mm
01:55 AM 68.9°F20.5°C 60.6°F15.9°C 75% Calm Calm 2.0 mph3.2 kmh 29.67 in1004.7 mb 0.00 in0.0 mm 0.00 in0.0 mm 0.00 in0.0 mm
01:50 AM 69.0°F20.6°C 60.7°F15.9°C 75% Calm Calm 2.0 mph3.2 kmh 29.67 in1004.7 mb 0.00 in0.0 mm 0.00 in0.0 mm 0.00 in0.0 mm
01:45 AM 69.1°F20.6°C 60.8°F16.0°C 75% 1.0 mph WSW1.6 kmh WSW 2.0 mph3.2 kmh 29.67 in1004.7 mb 0.00 in0.0 mm 0.00 in0.0 mm 0.00 in0.0 mm
01:40 AM 69.2°F20.7°C 60.9°F16.1°C 75% Calm Calm 2.0 mph3.2 kmh 29.68 in1005.1 mb 0.00 in0.0 mm 0.00 in0.0 mm 0.00 in0.0 mm
01:35 AM 69.4°F20.8°C 60.7°F15.9°C 74% Calm Calm 2.0 mph3.2 kmh 29.68 in1005.1 mb 0.00 in0.0 mm 0.00 in0.0 mm 0.00 in0.0 mm
01:30 AM 69.5°F20.8°C 60.8°F16.0°C 74% 1.0 mph WSW1.6 kmh WSW 5.0 mph8.0 kmh 29.68 in1005.1 mb 0.00 in0.0 mm 0.00 in0.0 mm 0.00 in0.0 mm
01:25 AM 69.5°F20.8°C 60.8°F16.0°C 74% 1.0 mph WSW1.6 kmh WSW 5.0 mph8.0 kmh 29.68 in1005.1 mb 0.00 in0.0 mm 0.00 in0.0 mm 0.00 in0.0 mm
01:20 AM 69.6°F20.9°C 60.9°F16.1°C 74% 1.0 mph SW1.6 kmh SW 5.0 mph8.0 kmh 29.68 in1005.1 mb 0.00 in0.0 mm 0.00 in0.0 mm 0.00 in0.0 mm
01:10 AM 69.7°F20.9°C 61.0°F16.1°C 74% 2.0 mph SW3.2 kmh SW 5.0 mph8.0 kmh 29.68 in1005.1 mb 0.00 in0.0 mm 0.00 in0.0 mm 0.00 in0.0 mm
01:05 AM 69.8°F21.0°C 61.1°F16.2°C 74% 1.0 mph SW1.6 kmh SW 5.0 mph8.0 kmh 29.68 in1005.1 mb 0.00 in0.0 mm 0.00 in0.0 mm 0.00 in0.0 mm
01:00 AM 69.8°F21.0°C 61.1°F16.2°C 74% Calm Calm 5.0 mph8.0 kmh 29.68 in1005.1 mb 0.00 in0.0 mm 0.00 in0.0 mm 0.00 in0.0 mm
12:55 AM 69.7°F20.9°C 61.0°F16.1°C 74% 2.0 mph WSW3.2 kmh WSW 5.0 mph8.0 kmh 29.69 in1005.4 mb 0.00 in0.0 mm 0.00 in0.0 mm 0.00 in0.0 mm
12:50 AM 69.9°F21.1°C 60.8°F16.0°C 73% 1.0 mph SW1.6 kmh SW 3.0 mph4.8 kmh 29.69 in1005.4 mb 0.00 in0.0 mm 0.00 in0.0 mm 0.00 in0.0 mm
12:45 AM 69.9°F21.1°C 60.8°F16.0°C 73% 1.0 mph SSW1.6 kmh SSW 3.0 mph4.8 kmh 29.69 in1005.4 mb 0.00 in0.0 mm 0.00 in0.0 mm 0.00 in0.0 mm
12:40 AM 70.0°F21.1°C 60.9°F16.1°C 73% 1.0 mph WSW1.6 kmh WSW 3.0 mph4.8 kmh 29.69 in1005.4 mb 0.00 in0.0 mm 0.00 in0.0 mm 0.00 in0.0 mm
12:35 AM 70.2°F21.2°C 61.1°F16.2°C 73% 1.0 mph S1.6 kmh S 3.0 mph4.8 kmh 29.69 in1005.4 mb 0.00 in0.0 mm 0.00 in0.0 mm 0.00 in0.0 mm
12:30 AM 70.3°F21.3°C 61.2°F16.2°C 73% 1.0 mph SW1.6 kmh SW 2.0 mph3.2 kmh 29.69 in1005.4 mb 0.00 in0.0 mm 0.00 in0.0 mm 0.00 in0.0 mm
12:25 AM 70.4°F21.3°C 61.3°F16.3°C 73% 1.0 mph SSW1.6 kmh SSW 2.0 mph3.2 kmh 29.69 in1005.4 mb 0.00 in0.0 mm 0.00 in0.0 mm 0.00 in0.0 mm
12:20 AM 70.5°F21.4°C 61.4°F16.3°C 73% 1.0 mph WSW1.6 kmh WSW 3.0 mph4.8 kmh 29.69 in1005.4 mb 0.00 in0.0 mm 0.00 in0.0 mm 0.00 in0.0 mm
12:15 AM 70.5°F21.4°C 61.0°F16.1°C 72% Calm Calm 3.0 mph4.8 kmh 29.69 in1005.4 mb 0.00 in0.0 mm 0.00 in0.0 mm 0.00 in0.0 mm
12:10 AM 70.6°F21.4°C 61.1°F16.2°C 72% 3.0 mph WSW4.8 kmh WSW 6.0 mph9.7 kmh 29.69 in1005.4 mb 0.00 in0.0 mm 0.00 in0.0 mm 0.00 in0.0 mm
12:05 AM 70.8°F21.6°C 61.3°F16.3°C 72% 1.0 mph SW1.6 kmh SW 6.0 mph9.7 kmh 29.69 in1005.4 mb 0.00 in0.0 mm 0.00 in0.0 mm 0.00 in0.0 mm
12:00 AM 70.9°F21.6°C 61.4°F16.3°C 72% Calm Calm 6.0 mph9.7 kmh 29.69 in1005.4 mb 0.00 in0.0 mm 0.00 in0.0 mm 0.00 in0.0 mm